createdAt,value
2019-02-28T00:01:48.058Z,40.53
2019-02-28T00:04:18.375Z,40.27
2019-02-28T00:06:48.645Z,39.50
2019-02-28T00:09:18.902Z,42.53
2019-02-28T00:11:49.285Z,37.90
2019-02-28T00:14:19.542Z,41.07
2019-02-28T00:16:49.866Z,40.47
2019-02-28T00:19:21.060Z,33.67
2019-02-28T00:21:52.091Z,39.53
2019-02-28T00:24:22.387Z,38.53
2019-02-28T00:26:52.707Z,31.67
2019-02-28T00:29:22.950Z,43.33
2019-02-28T00:31:53.265Z,32.73
2019-02-28T00:34:23.575Z,36.77
2019-02-28T00:36:54.122Z,30.37
2019-02-28T00:39:24.638Z,37.40
2019-02-28T00:41:54.912Z,34.63
2019-02-28T00:44:25.210Z,35.57
2019-02-28T00:46:55.516Z,39.23
2019-02-28T00:49:25.772Z,40.13
2019-02-28T00:51:56.065Z,34.57
2019-02-28T00:54:26.357Z,37.07
2019-02-28T00:56:56.643Z,35.40
2019-02-28T00:59:26.917Z,34.40
2019-02-28T01:01:57.232Z,38.10
2019-02-28T01:04:29.961Z,33.73
2019-02-28T01:06:59.425Z,33.40
2019-02-28T01:09:30.175Z,30.80
2019-02-28T01:12:01.277Z,34.13
2019-02-28T01:14:32.387Z,38.17
2019-02-28T01:17:03.494Z,34.17
2019-02-28T01:19:33.775Z,30.70
2019-02-28T01:22:04.056Z,32.63
2019-02-28T01:24:35.404Z,35.27
2019-02-28T01:27:05.757Z,35.50
2019-02-28T01:29:36.437Z,32.70
2019-02-28T01:32:06.754Z,35.60
2019-02-28T01:34:37.018Z,35.23
2019-02-28T01:37:07.302Z,37.97
2019-02-28T01:39:37.574Z,37.07
2019-02-28T01:42:07.841Z,34.77
2019-02-28T01:44:38.112Z,31.50
2019-02-28T01:47:08.427Z,35.43
2019-02-28T01:49:38.754Z,33.03
2019-02-28T01:52:10.065Z,34.73
2019-02-28T01:54:41.262Z,33.83
2019-02-28T01:57:11.562Z,33.23
2019-02-28T01:59:41.822Z,33.90
2019-02-28T02:02:12.143Z,37.93
2019-02-28T02:04:43.140Z,38.00
2019-02-28T02:07:14.379Z,33.67
2019-02-28T02:09:46.083Z,26.17
2019-02-28T02:12:16.617Z,37.17
2019-02-28T02:14:46.877Z,34.70
2019-02-28T02:17:17.258Z,35.37
2019-02-28T02:19:49.386Z,33.33
2019-02-28T02:22:19.445Z,36.27
2019-02-28T02:24:49.786Z,37.60
2019-02-28T02:27:20.375Z,35.20
2019-02-28T02:29:50.777Z,36.43
2019-02-28T02:32:21.125Z,32.63
2019-02-28T02:34:51.404Z,31.90
2019-02-28T02:37:21.659Z,33.07
2019-02-28T02:39:51.949Z,32.80
2019-02-28T02:42:22.213Z,34.77
2019-02-28T02:44:52.496Z,35.43
2019-02-28T02:47:22.778Z,30.07
2019-02-28T02:49:57.554Z,36.87
2019-02-28T02:52:29.966Z,30.93
2019-02-28T02:54:56.888Z,43.13
2019-02-28T02:57:27.170Z,35.70
2019-02-28T02:59:57.449Z,33.23
2019-02-28T03:02:28.819Z,33.43
2019-02-28T03:04:59.683Z,34.50
2019-02-28T03:07:29.942Z,33.80
2019-02-28T03:10:00.419Z,28.57
2019-02-28T03:12:31.585Z,29.10
2019-02-28T03:15:02.629Z,36.10
2019-02-28T03:17:32.897Z,39.27
2019-02-28T03:20:07.539Z,31.73
2019-02-28T03:22:35.167Z,32.03
2019-02-28T03:25:06.263Z,30.30
2019-02-28T03:27:36.581Z,32.07
2019-02-28T03:30:07.980Z,32.60
2019-02-28T03:32:42.101Z,33.67
2019-02-28T03:35:10.275Z,35.37
2019-02-28T03:37:40.576Z,35.77
2019-02-28T03:40:11.102Z,32.63
2019-02-28T03:42:41.391Z,33.50
2019-02-28T03:45:11.955Z,35.37
2019-02-28T03:47:42.203Z,36.67
2019-02-28T03:50:12.514Z,31.70
2019-02-28T03:52:44.560Z,37.20
2019-02-28T03:55:14.956Z,34.47
2019-02-28T03:57:45.187Z,33.77
2019-02-28T04:00:17.267Z,31.47
2019-02-28T04:02:47.621Z,24.50
2019-02-28T04:05:17.985Z,29.30
2019-02-28T04:07:52.255Z,35.67
2019-02-28T04:10:22.019Z,33.40
2019-02-28T04:12:52.090Z,30.27
2019-02-28T04:15:22.826Z,30.50
2019-02-28T04:17:53.123Z,30.70
2019-02-28T04:20:23.386Z,32.60
2019-02-28T04:22:58.842Z,29.40
2019-02-28T04:25:25.589Z,26.30
2019-02-28T04:27:55.854Z,36.10
2019-02-28T04:30:26.138Z,29.20
2019-02-28T04:33:01.071Z,27.60
2019-02-28T04:35:28.331Z,32.40
2019-02-28T04:37:58.575Z,32.13
2019-02-28T04:40:28.857Z,32.37
2019-02-28T04:42:59.138Z,32.17
2019-02-28T04:45:29.399Z,31.07
2019-02-28T04:47:59.692Z,32.20
2019-02-28T04:50:32.151Z,27.03
2019-02-28T04:53:01.850Z,33.67
2019-02-28T04:55:34.214Z,30.23
2019-02-28T04:58:04.054Z,28.73
2019-02-28T05:00:37.770Z,29.30
2019-02-28T05:03:06.415Z,29.37
2019-02-28T05:05:36.717Z,29.90
2019-02-28T05:08:07.051Z,28.97
2019-02-28T05:10:37.360Z,26.73
2019-02-28T05:13:07.643Z,23.83
2019-02-28T05:15:40.946Z,29.17
2019-02-28T05:18:09.922Z,29.07
2019-02-28T05:20:44.971Z,27.70
2019-02-28T05:23:12.079Z,30.63
2019-02-28T05:25:42.359Z,29.10
2019-02-28T05:28:12.667Z,28.33
2019-02-28T05:30:42.962Z,31.47
2019-02-28T05:33:13.254Z,27.23
2019-02-28T05:35:43.518Z,31.53
2019-02-28T05:38:13.810Z,24.67
2019-02-28T05:40:44.086Z,27.57
2019-02-28T05:43:14.373Z,27.67
2019-02-28T05:45:48.721Z,26.73
2019-02-28T05:48:16.567Z,26.47
2019-02-28T05:50:47.029Z,25.87
2019-02-28T05:53:19.467Z,22.47
2019-02-28T05:55:49.796Z,25.40
2019-02-28T05:58:20.917Z,29.53
2019-02-28T06:00:51.519Z,28.97
2019-02-28T06:03:21.778Z,32.83
2019-02-28T06:05:52.097Z,25.43
2019-02-28T06:08:22.387Z,21.87
2019-02-28T06:10:56.057Z,24.17
2019-02-28T06:13:24.630Z,24.93
2019-02-28T06:15:54.897Z,24.87
2019-02-28T06:18:27.075Z,28.30
2019-02-28T06:20:57.169Z,29.60
2019-02-28T06:23:27.466Z,29.17
2019-02-28T06:25:59.366Z,28.37
2019-02-28T06:28:31.126Z,31.87
2019-02-28T06:31:01.781Z,30.50
2019-02-28T06:33:33.569Z,26.83
2019-02-28T06:36:04.602Z,27.30
2019-02-28T06:38:35.222Z,31.80
2019-02-28T06:41:07.527Z,29.17
2019-02-28T06:43:37.389Z,29.13
2019-02-28T06:46:08.539Z,32.67
2019-02-28T06:48:39.553Z,30.83
2019-02-28T06:51:09.850Z,26.77
2019-02-28T06:53:41.394Z,31.37
2019-02-28T06:56:11.646Z,26.50
2019-02-28T06:58:41.922Z,29.83
2019-02-28T07:01:12.222Z,20.93
2019-02-28T07:03:42.565Z,34.30
2019-02-28T07:06:12.987Z,35.43
2019-02-28T07:08:43.285Z,26.13
2019-02-28T07:11:13.578Z,34.23
2019-02-28T07:13:43.910Z,21.23
2019-02-28T07:16:14.253Z,32.57
2019-02-28T07:18:44.539Z,32.80
2019-02-28T07:21:14.803Z,25.53
2019-02-28T07:23:45.095Z,35.90
2019-02-28T07:26:18.816Z,38.73
2019-02-28T07:28:47.311Z,32.10
2019-02-28T07:31:17.619Z,28.87
2019-02-28T07:33:47.874Z,33.63
2019-02-28T07:36:18.143Z,33.53
2019-02-28T07:38:48.539Z,38.23
2019-02-28T07:41:20.283Z,36.20
2019-02-28T07:43:50.726Z,37.90
2019-02-28T07:46:21.062Z,40.50
2019-02-28T07:48:51.378Z,37.77
2019-02-28T07:51:22.200Z,32.10
2019-02-28T07:53:53.542Z,42.67
2019-02-28T07:56:23.968Z,45.53
2019-02-28T07:58:54.359Z,31.07
2019-02-28T08:01:27.674Z,27.37
2019-02-28T08:03:56.549Z,48.73
2019-02-28T08:06:26.857Z,35.83
2019-02-28T08:08:57.198Z,47.13
2019-02-28T08:11:27.475Z,64.80
2019-02-28T08:13:57.736Z,50.00
2019-02-28T08:16:30.708Z,62.10
2019-02-28T08:18:59.969Z,66.67
2019-02-28T08:21:30.271Z,57.17
2019-02-28T08:24:02.509Z,66.97
2019-02-28T08:26:32.531Z,72.13
2019-02-28T08:29:02.797Z,56.57
2019-02-28T08:31:33.114Z,74.70
2019-02-28T08:34:03.400Z,71.87
2019-02-28T08:36:33.684Z,69.67
2019-02-28T08:39:06.094Z,58.10
2019-02-28T08:42:02.964Z,64.13
2019-02-28T08:44:28.720Z,66.73
2019-02-28T08:46:59.023Z,51.17
2019-02-28T08:49:29.263Z,68.37
2019-02-28T08:52:02.507Z,59.60
2019-02-28T08:54:31.526Z,67.23
2019-02-28T08:57:02.012Z,61.40
2019-02-28T08:59:32.300Z,77.17
2019-02-28T09:02:02.606Z,65.07
2019-02-28T09:04:40.969Z,64.93
2019-02-28T09:07:04.858Z,84.87
2019-02-28T09:09:35.317Z,62.63
2019-02-28T09:12:05.832Z,66.13
2019-02-28T09:14:36.141Z,71.63
2019-02-28T09:17:06.428Z,78.33
2019-02-28T09:19:36.931Z,86.13
2019-02-28T09:22:07.262Z,81.83
2019-02-28T09:24:37.537Z,81.70
2019-02-28T09:27:07.843Z,81.47
2019-02-28T09:29:38.100Z,82.13
2019-02-28T09:32:10.223Z,74.07
2019-02-28T09:34:41.317Z,83.37
2019-02-28T09:37:11.679Z,41.13
2019-02-28T09:39:41.996Z,84.57
2019-02-28T09:42:15.074Z,85.97
2019-02-28T09:44:44.183Z,72.83
2019-02-28T09:47:14.427Z,88.30
2019-02-28T09:49:47.333Z,85.13
2019-02-28T09:52:16.639Z,73.17
2019-02-28T09:54:46.906Z,87.03
2019-02-28T09:57:18.895Z,76.30
2019-02-28T09:59:49.068Z,79.00
2019-02-28T10:02:22.454Z,65.93
2019-02-28T10:04:52.757Z,72.67
2019-02-28T10:07:23.348Z,86.53
2019-02-28T10:09:54.972Z,60.57
2019-02-28T10:12:25.266Z,66.90
2019-02-28T10:14:55.565Z,83.87
2019-02-28T10:17:28.773Z,67.80
2019-02-28T10:19:57.833Z,79.90
2019-02-28T10:22:28.170Z,71.27
2019-02-28T10:24:58.450Z,75.93
2019-02-28T10:27:28.726Z,71.63
2019-02-28T10:29:59.003Z,59.30
2019-02-28T10:32:29.274Z,83.07
2019-02-28T10:35:01.381Z,73.73
2019-02-28T10:37:31.466Z,85.20
2019-02-28T10:40:01.769Z,66.27
2019-02-28T10:42:32.093Z,69.63
2019-02-28T10:45:03.689Z,81.00
2019-02-28T10:47:34.316Z,69.47
2019-02-28T10:50:04.979Z,75.47
2019-02-28T10:52:35.255Z,83.27
2019-02-28T10:55:06.545Z,66.00
2019-02-28T10:57:37.282Z,81.63
2019-02-28T11:00:20.977Z,67.60
2019-02-28T11:02:53.759Z,77.60
2019-02-28T11:05:28.103Z,54.67
2019-02-28T11:07:58.531Z,68.93
2019-02-28T11:10:37.600Z,69.40
2019-02-28T11:13:10.968Z,73.40
2019-02-28T11:15:41.431Z,59.40
2019-02-28T11:18:12.566Z,67.03
2019-02-28T11:20:43.219Z,61.43
2019-02-28T11:23:14.833Z,78.20
2019-02-28T11:25:46.414Z,62.50
2019-02-28T11:28:17.258Z,70.47
2019-02-28T11:30:48.146Z,58.03
2019-02-28T11:33:18.933Z,53.27
2019-02-28T11:35:49.288Z,72.10
2019-02-28T11:38:21.555Z,55.97
2019-02-28T11:40:57.269Z,54.53
2019-02-28T11:43:23.458Z,40.13
2019-02-28T11:45:56.547Z,48.50
2019-02-28T11:48:29.302Z,42.40
2019-02-28T11:50:59.635Z,39.47
2019-02-28T11:53:29.911Z,55.73
2019-02-28T11:56:00.249Z,40.87
2019-02-28T11:58:30.571Z,41.40
2019-02-28T12:01:02.298Z,39.63
2019-02-28T12:03:35.419Z,44.67
2019-02-28T12:06:06.804Z,37.53
2019-02-28T12:08:36.942Z,41.40
2019-02-28T12:11:07.275Z,36.50
2019-02-28T12:13:37.554Z,38.00
2019-02-28T12:16:07.950Z,37.33
2019-02-28T12:18:39.991Z,34.80
2019-02-28T12:21:10.543Z,33.27
2019-02-28T12:23:40.894Z,22.27
2019-02-28T12:26:14.188Z,32.00
2019-02-28T12:28:43.171Z,33.57
2019-02-28T12:31:14.059Z,27.07
2019-02-28T12:33:44.970Z,30.53
2019-02-28T12:36:15.383Z,34.10
2019-02-28T12:38:45.807Z,27.20
2019-02-28T12:41:16.157Z,32.83
2019-02-28T12:43:46.726Z,28.40
2019-02-28T12:46:17.093Z,19.80
2019-02-28T12:48:48.325Z,34.60
2019-02-28T12:51:19.295Z,31.60
2019-02-28T12:53:49.633Z,38.97
2019-02-28T12:56:19.922Z,30.73
2019-02-28T12:58:50.245Z,24.03
2019-02-28T13:01:20.552Z,27.97
2019-02-28T13:03:54.658Z,24.83
2019-02-28T13:06:23.739Z,26.03
2019-02-28T13:08:55.055Z,24.70
2019-02-28T13:11:25.481Z,18.47
2019-02-28T13:13:55.751Z,23.97
2019-02-28T13:16:26.369Z,23.83
2019-02-28T13:18:56.914Z,25.37
2019-02-28T13:21:27.312Z,18.17
2019-02-28T13:23:57.597Z,19.33
2019-02-28T13:26:30.531Z,21.13
2019-02-28T13:28:59.874Z,20.83
2019-02-28T13:31:30.186Z,25.47
2019-02-28T13:34:01.221Z,17.33
2019-02-28T13:36:31.655Z,26.33
2019-02-28T13:39:01.932Z,24.57
2019-02-28T13:41:32.215Z,26.43
2019-02-28T13:44:02.515Z,22.93
2019-02-28T13:46:34.287Z,23.40
2019-02-28T13:49:04.722Z,17.30
2019-02-28T13:51:40.079Z,24.43
2019-02-28T13:54:07.419Z,24.20
2019-02-28T13:56:38.017Z,25.73
2019-02-28T13:59:08.288Z,18.97
2019-02-28T14:01:38.586Z,26.40
2019-02-28T14:04:08.890Z,16.40
2019-02-28T14:06:39.194Z,26.33
2019-02-28T14:09:09.770Z,17.73
2019-02-28T14:11:41.832Z,26.87
2019-02-28T14:14:11.940Z,19.23
2019-02-28T14:16:42.247Z,19.70
2019-02-28T14:19:12.526Z,19.43
2019-02-28T14:21:42.819Z,23.03
2019-02-28T14:24:13.135Z,17.07
2019-02-28T14:26:46.577Z,18.80
2019-02-28T14:29:15.511Z,20.77
2019-02-28T14:31:45.810Z,17.10
2019-02-28T14:34:16.178Z,18.00
2019-02-28T14:36:46.488Z,15.77
2019-02-28T14:39:16.901Z,18.33
2019-02-28T14:41:47.202Z,13.00
2019-02-28T14:44:17.499Z,17.03
2019-02-28T14:46:49.844Z,13.43
2019-02-28T14:49:19.806Z,18.00
2019-02-28T14:51:50.089Z,15.57
2019-02-28T14:54:21.877Z,13.23
2019-02-28T14:56:52.322Z,18.80
2019-02-28T14:59:22.607Z,13.47
2019-02-28T15:01:54.071Z,18.83
2019-02-28T15:04:24.835Z,11.93
2019-02-28T15:06:55.147Z,15.00
2019-02-28T15:09:27.089Z,13.77
2019-02-28T15:11:59.931Z,10.87
2019-02-28T15:14:30.228Z,18.27
2019-02-28T15:17:01.559Z,14.90
2019-02-28T15:19:32.489Z,12.00
2019-02-28T15:22:02.769Z,16.90
2019-02-28T15:24:33.025Z,11.67
2019-02-28T15:27:04.171Z,7.03
2019-02-28T15:29:35.301Z,8.73
2019-02-28T15:32:05.577Z,10.10
2019-02-28T15:34:37.525Z,11.50
2019-02-28T15:37:07.666Z,10.10
2019-02-28T15:39:37.933Z,11.13
2019-02-28T15:42:09.050Z,16.27
2019-02-28T15:44:39.387Z,10.83
2019-02-28T15:47:09.633Z,11.93
2019-02-28T15:49:41.773Z,9.67
2019-02-28T15:52:12.250Z,6.77
2019-02-28T15:54:42.497Z,9.03
2019-02-28T15:57:13.182Z,10.47
2019-02-28T15:59:43.432Z,8.20
2019-02-28T16:02:14.610Z,14.30
2019-02-28T16:04:44.994Z,7.27
2019-02-28T16:07:15.274Z,7.93
2019-02-28T16:09:45.598Z,9.40
2019-02-28T16:12:16.081Z,8.30
2019-02-28T16:14:46.336Z,10.10
2019-02-28T16:17:16.679Z,8.90
2019-02-28T16:19:46.994Z,9.00
2019-02-28T16:22:18.165Z,5.07
2019-02-28T16:24:49.096Z,8.10
2019-02-28T16:27:19.378Z,5.20
2019-02-28T16:29:52.222Z,10.17
2019-02-28T16:32:21.641Z,10.33
2019-02-28T16:34:51.945Z,13.60
2019-02-28T16:37:22.221Z,18.17
2019-02-28T16:39:52.593Z,24.97
2019-02-28T16:42:22.905Z,16.03
2019-02-28T16:44:53.197Z,13.90
2019-02-28T16:47:24.320Z,13.47
2019-02-28T16:49:55.405Z,7.27
2019-02-28T16:52:25.750Z,5.77
2019-02-28T16:54:56.357Z,7.63
2019-02-28T16:57:27.530Z,4.60
2019-02-28T16:59:57.845Z,9.30
2019-02-28T17:02:29.299Z,6.80
2019-02-28T17:04:59.974Z,7.20
2019-02-28T17:07:30.349Z,7.40
2019-02-28T17:10:01.556Z,8.70
2019-02-28T17:12:59.609Z,6.70
2019-02-28T17:15:45.605Z,15.97
2019-02-28T17:18:18.520Z,17.60
2019-02-28T17:20:50.217Z,9.70
2019-02-28T17:23:20.469Z,6.23
2019-02-28T17:25:53.579Z,8.90
2019-02-28T17:28:36.184Z,6.77
2019-02-28T17:31:25.408Z,4.60
2019-02-28T17:33:55.772Z,7.23
2019-02-28T17:36:26.055Z,6.63
2019-02-28T17:38:56.309Z,7.27
2019-02-28T17:41:26.543Z,6.70
2019-02-28T17:44:37.461Z,7.73
2019-02-28T17:47:38.101Z,7.50
2019-02-28T17:50:27.504Z,5.53
2019-02-28T17:53:34.047Z,6.70
2019-02-28T17:57:00.594Z,12.70
2019-02-28T17:59:42.417Z,15.37
2019-02-28T18:02:43.164Z,17.37
2019-02-28T18:05:50.434Z,8.47
2019-02-28T18:08:42.823Z,11.30
2019-02-28T18:11:52.905Z,11.43
2019-02-28T18:14:51.294Z,7.77
2019-02-28T18:18:23.412Z,8.93
2019-02-28T18:21:25.567Z,8.00
2019-02-28T18:24:20.967Z,6.07
2019-02-28T18:27:43.672Z,6.67
2019-02-28T18:31:07.275Z,5.65
2019-02-28T18:33:41.890Z,7.30
2019-02-28T18:36:15.243Z,8.97
2019-02-28T18:38:45.483Z,11.17
2019-02-28T18:41:15.870Z,7.70
2019-02-28T18:43:46.171Z,5.13
2019-02-28T18:46:16.428Z,6.27
2019-02-28T18:48:46.904Z,3.80
2019-02-28T18:51:17.209Z,4.47
2019-02-28T18:53:47.462Z,5.37
2019-02-28T18:56:17.789Z,3.43
2019-02-28T18:58:48.079Z,4.40
2019-02-28T19:01:18.592Z,4.50
2019-02-28T19:03:48.870Z,5.90
2019-02-28T19:06:19.140Z,3.60
2019-02-28T19:08:49.429Z,4.10
2019-02-28T19:11:19.670Z,4.93
2019-02-28T19:13:50.000Z,6.53
2019-02-28T19:16:20.265Z,5.23
2019-02-28T19:18:50.582Z,7.73
2019-02-28T19:21:20.834Z,3.87
2019-02-28T19:23:51.104Z,4.07
2019-02-28T19:26:21.446Z,5.37
2019-02-28T19:28:54.535Z,4.57
2019-02-28T19:31:24.818Z,4.60
2019-02-28T19:33:55.077Z,5.37
2019-02-28T19:36:25.336Z,5.23
2019-02-28T19:38:55.574Z,4.97
2019-02-28T19:41:25.843Z,6.47
2019-02-28T19:43:56.072Z,4.07
2019-02-28T19:46:26.347Z,3.53
2019-02-28T19:48:56.631Z,5.50
2019-02-28T19:51:26.982Z,5.13
2019-02-28T19:53:57.224Z,4.90
2019-02-28T19:56:27.482Z,5.07
2019-02-28T19:58:57.780Z,3.00
2019-02-28T20:01:28.029Z,4.10
2019-02-28T20:03:58.259Z,4.40
2019-02-28T20:06:28.526Z,4.13
2019-02-28T20:08:58.855Z,3.87
2019-02-28T20:11:29.191Z,8.73
2019-02-28T20:13:59.500Z,6.00
2019-02-28T20:16:29.840Z,5.50
2019-02-28T20:19:00.173Z,8.97
2019-02-28T20:21:30.460Z,6.80
2019-02-28T20:24:00.717Z,6.87
2019-02-28T20:26:30.949Z,6.40
2019-02-28T20:29:01.202Z,6.00
2019-02-28T20:31:31.958Z,8.33
2019-02-28T20:34:02.244Z,8.77
2019-02-28T20:36:32.521Z,7.70
2019-02-28T20:39:02.889Z,10.20
2019-02-28T20:41:33.177Z,9.23
2019-02-28T20:44:03.445Z,10.10
2019-02-28T20:46:33.722Z,11.87
2019-02-28T20:49:04.065Z,9.80
2019-02-28T20:51:34.389Z,8.80
2019-02-28T20:54:04.794Z,9.50
2019-02-28T20:56:35.212Z,10.33
2019-02-28T20:59:05.773Z,10.73
2019-02-28T21:01:36.040Z,9.37
2019-02-28T21:04:06.287Z,9.07
2019-02-28T21:06:36.575Z,8.30
2019-02-28T21:09:08.139Z,10.70
2019-02-28T21:11:38.444Z,9.90
2019-02-28T21:14:09.400Z,4.90
2019-02-28T21:17:32.723Z,10.00
2019-02-28T21:20:03.025Z,9.50
2019-02-28T21:22:49.380Z,8.03
2019-02-28T21:26:18.941Z,9.60
2019-02-28T21:28:49.215Z,7.60
2019-02-28T21:31:19.501Z,9.13
2019-02-28T21:33:49.786Z,9.90
2019-02-28T21:36:20.045Z,9.53
2019-02-28T21:38:50.353Z,10.43
2019-02-28T21:41:20.735Z,7.63
2019-02-28T21:43:50.981Z,11.47
2019-02-28T21:46:21.246Z,8.13
2019-02-28T21:48:51.516Z,9.87
2019-02-28T21:51:21.782Z,8.20
2019-02-28T21:53:52.053Z,7.60
2019-02-28T21:56:22.316Z,6.63
2019-02-28T21:58:52.653Z,10.07
2019-02-28T22:01:22.968Z,6.57
2019-02-28T22:03:53.228Z,4.97
2019-02-28T22:06:23.489Z,6.00
2019-02-28T22:08:53.867Z,6.47
2019-02-28T22:11:24.099Z,7.77
2019-02-28T22:13:56.650Z,7.47
2019-02-28T22:16:26.888Z,9.00
2019-02-28T22:18:57.141Z,9.07
2019-02-28T22:21:27.416Z,7.37
2019-02-28T22:23:57.641Z,9.40
2019-02-28T22:26:27.924Z,5.40
2019-02-28T22:28:58.227Z,5.67
2019-02-28T22:31:45.324Z,6.33
2019-02-28T22:34:36.516Z,3.17
2019-02-28T22:37:06.753Z,4.97
2019-02-28T22:39:37.073Z,4.63
2019-02-28T22:42:07.338Z,7.80
2019-02-28T22:44:37.592Z,4.87
2019-02-28T22:47:07.869Z,7.33
2019-02-28T22:49:38.120Z,6.50
2019-02-28T22:52:08.390Z,3.10
2019-02-28T22:54:38.677Z,5.93
2019-02-28T22:57:08.930Z,4.90
2019-02-28T22:59:39.194Z,6.97
2019-02-28T23:02:09.566Z,6.63
2019-02-28T23:04:39.829Z,6.57
2019-02-28T23:07:10.065Z,11.37
2019-02-28T23:09:40.354Z,9.03
2019-02-28T23:12:10.610Z,8.57
2019-02-28T23:14:40.847Z,7.27
2019-02-28T23:17:11.095Z,5.37
2019-02-28T23:19:45.770Z,4.40
2019-02-28T23:23:14.702Z,4.57
2019-02-28T23:25:45.001Z,6.33
2019-02-28T23:28:26.513Z,4.50
2019-02-28T23:31:36.220Z,10.60
2019-02-28T23:34:20.824Z,4.57
2019-02-28T23:36:51.091Z,4.70
2019-02-28T23:39:21.329Z,3.30
2019-02-28T23:41:51.569Z,3.70
2019-02-28T23:44:21.881Z,8.20
2019-02-28T23:46:52.177Z,8.33
2019-02-28T23:49:22.405Z,4.10
2019-02-28T23:51:52.727Z,6.87
2019-02-28T23:54:23.000Z,6.27
2019-02-28T23:56:53.291Z,6.13
2019-02-28T23:59:23.557Z,5.00
